Time,TemperatureF,DewpointF,PressureIn,WindDirection,WindDirectionDegrees,WindSpeedMPH,WindSpeedGustMPH,Humidity,HourlyPrecipIn,Conditions,Clouds,dailyrainin,SoftwareType,DateUTC
2013-04-01 00:02:00,52.7,36.5,30.03,East,96,3.0,3.0,54,0.00,,---,0.00,VWS V14.01,2013-04-01 05:02:00,
2013-04-01 00:07:00,52.6,36.9,30.04,ENE,68,3.0,6.0,55,0.00,,---,0.00,VWS V14.01,2013-04-01 05:07:00,
2013-04-01 00:12:00,52.2,37.4,30.04,NNE,28,6.0,8.0,57,0.00,,---,0.00,VWS V14.01,2013-04-01 05:12:00,
2013-04-01 00:17:00,51.7,37.4,30.05,East,91,6.0,8.0,58,0.00,,---,0.00,VWS V14.01,2013-04-01 05:17:00,
2013-04-01 00:22:00,51.5,37.7,30.05,ENE,57,2.0,8.0,59,0.00,,---,0.00,VWS V14.01,2013-04-01 05:22:00,
2013-04-01 00:27:00,51.4,38.0,30.05,NE,46,2.0,8.0,60,0.00,,---,0.00,VWS V14.01,2013-04-01 05:27:00,
2013-04-01 00:32:00,51.2,38.2,30.06,NE,53,2.0,4.0,61,0.00,,---,0.00,VWS V14.01,2013-04-01 05:32:00,
2013-04-01 00:37:00,51.2,38.2,30.06,ENE,71,5.0,7.0,61,0.00,,---,0.00,VWS V14.01,2013-04-01 05:37:00,
2013-04-01 00:42:00,51.1,38.1,30.06,NE,53,3.0,7.0,61,0.00,,---,0.00,VWS V14.01,2013-04-01 05:42:00,
2013-04-01 00:47:00,51.2,37.4,30.06,ENE,76,4.0,6.0,59,0.00,,---,0.00,VWS V14.01,2013-04-01 05:47:00,
2013-04-01 00:52:00,51.2,37.4,30.07,ENE,68,3.0,6.0,59,0.00,,---,0.00,VWS V14.01,2013-04-01 05:52:00,
2013-04-01 00:57:00,51.2,37.4,30.07,SE,135,0.0,6.0,59,0.00,,---,0.00,VWS V14.01,2013-04-01 05:57:00,
2013-04-01 01:02:00,51.2,37.0,30.07,ENE,70,2.0,6.0,58,0.00,,---,0.00,VWS V14.01,2013-04-01 06:02:00,
2013-04-01 01:07:00,51.2,37.0,30.08,ENE,66,2.0,7.0,58,0.00,,---,0.00,VWS V14.01,2013-04-01 06:07:00,
2013-04-01 01:12:00,51.2,36.5,30.08,ENE,62,2.0,11.0,57,0.00,,---,0.00,VWS V14.01,2013-04-01 06:12:00,
2013-04-01 01:17:00,51.2,36.5,30.09,ENE,63,8.0,12.0,57,0.00,,---,0.00,VWS V14.01,2013-04-01 06:17:00,
2013-04-01 01:22:00,51.0,36.3,30.09,ENE,60,9.0,12.0,57,0.00,,---,0.00,VWS V14.01,2013-04-01 06:22:00,
2013-04-01 01:27:00,50.5,35.4,30.09,ENE,77,5.0,13.0,56,0.00,,---,0.00,VWS V14.01,2013-04-01 06:27:00,
2013-04-01 01:32:00,49.9,33.9,30.10,SSE,159,6.0,14.0,54,0.00,,---,0.00,VWS V14.01,2013-04-01 06:32:00,
2013-04-01 01:37:00,49.3,32.4,30.10,WSW,246,6.0,17.0,52,0.00,,---,0.00,VWS V14.01,2013-04-01 06:37:00,
2013-04-01 01:42:00,48.9,32.5,30.10,NE,35,14.0,17.0,53,0.00,,---,0.00,VWS V14.01,2013-04-01 06:42:00,
2013-04-01 01:47:00,48.5,32.2,30.11,ENE,59,5.0,12.0,53,0.00,,---,0.00,VWS V14.01,2013-04-01 06:47:00,
2013-04-01 01:52:00,48.1,32.3,30.11,ENE,57,4.0,15.0,54,0.00,,---,0.00,VWS V14.01,2013-04-01 06:52:00,
2013-04-01 01:57:00,47.7,32.3,30.11,NNE,27,11.0,17.0,55,0.00,,---,0.00,VWS V14.01,2013-04-01 06:57:00,
2013-04-01 02:02:00,47.3,32.0,30.11,ENE,71,5.0,16.0,55,0.00,,---,0.00,VWS V14.01,2013-04-01 07:02:00,
2013-04-01 02:07:00,46.8,32.0,30.12,ENE,67,9.0,16.0,56,0.00,,---,0.00,VWS V14.01,2013-04-01 07:07:00,
2013-04-01 02:12:00,45.9,32.4,30.13,NE,49,9.0,18.0,59,0.00,,---,0.00,VWS V14.01,2013-04-01 07:12:00,
2013-04-01 02:17:00,44.9,32.7,30.14,ENE,77,15.0,15.0,62,0.00,,---,0.00,VWS V14.01,2013-04-01 07:17:00,
2013-04-01 02:22:00,44.3,32.5,30.14,NE,49,12.0,18.0,63,0.00,,---,0.00,VWS V14.01,2013-04-01 07:22:00,
2013-04-01 02:27:00,43.9,32.9,30.14,NE,35,5.0,18.0,65,0.00,,---,0.00,VWS V14.01,2013-04-01 07:27:00,
2013-04-01 02:32:00,43.6,33.0,30.15,NNE,27,14.0,15.0,66,0.00,,---,0.00,VWS V14.01,2013-04-01 07:32:00,
2013-04-01 02:37:00,43.4,33.2,30.16,NE,44,9.0,15.0,67,0.00,,---,0.00,VWS V14.01,2013-04-01 07:37:00,
2013-04-01 02:42:00,43.2,33.0,30.15,ENE,57,13.0,16.0,67,0.00,,---,0.00,VWS V14.01,2013-04-01 07:42:00,
2013-04-01 02:47:00,43.0,33.2,30.16,NE,47,2.0,14.0,68,0.00,,---,0.00,VWS V14.01,2013-04-01 07:47:00,
2013-04-01 02:52:00,42.9,33.4,30.16,NNW,340,5.0,14.0,69,0.00,,---,0.00,VWS V14.01,2013-04-01 07:52:00,
2013-04-01 02:57:00,42.7,33.2,30.16,NE,47,12.0,16.0,69,0.00,,---,0.00,VWS V14.01,2013-04-01 07:57:00,
2013-04-01 03:02:00,42.6,33.9,30.17,ENE,70,8.0,12.0,71,0.00,,---,0.00,VWS V14.01,2013-04-01 08:02:00,
2013-04-01 03:07:00,42.5,33.8,30.17,NE,50,14.0,14.0,71,0.00,,---,0.00,VWS V14.01,2013-04-01 08:07:00,
2013-04-01 03:12:00,42.4,34.0,30.17,East,79,2.0,14.0,72,0.00,,---,0.00,VWS V14.01,2013-04-01 08:12:00,
2013-04-01 03:17:00,42.3,34.3,30.18,ENE,60,11.0,11.0,73,0.00,,---,0.00,VWS V14.01,2013-04-01 08:17:00,
2013-04-01 03:22:00,42.1,34.4,30.18,NNW,340,6.0,12.0,74,0.00,,---,0.00,VWS V14.01,2013-04-01 08:22:00,
2013-04-01 03:27:00,42.0,34.7,30.19,NNE,32,5.0,16.0,75,0.00,,---,0.00,VWS V14.01,2013-04-01 08:27:00,
2013-04-01 03:32:00,41.8,34.8,30.19,NE,45,8.0,16.0,76,0.00,,---,0.00,VWS V14.01,2013-04-01 08:32:00,
2013-04-01 03:37:00,41.7,35.0,30.19,ENE,59,10.0,16.0,77,0.00,,---,0.00,VWS V14.01,2013-04-01 08:37:00,
2013-04-01 03:42:00,41.5,35.2,30.20,ENE,61,9.0,16.0,78,0.00,,---,0.00,VWS V14.01,2013-04-01 08:42:00,
2013-04-01 03:47:00,41.4,35.4,30.20,East,98,11.0,12.0,79,0.00,,---,0.00,VWS V14.01,2013-04-01 08:47:00,
2013-04-01 03:52:00,41.3,35.3,30.20,ENE,65,3.0,15.0,79,0.00,,---,0.00,VWS V14.01,2013-04-01 08:52:00,
2013-04-01 03:57:00,41.3,35.6,30.20,NNE,32,6.0,15.0,80,0.00,,---,0.00,VWS V14.01,2013-04-01 08:57:00,
2013-04-01 04:02:00,41.3,35.6,30.21,ENE,59,7.0,13.0,80,0.00,,---,0.00,VWS V14.01,2013-04-01 09:02:00,
2013-04-01 04:07:00,41.2,35.5,30.21,ENE,63,7.0,15.0,80,0.00,,---,0.00,VWS V14.01,2013-04-01 09:07:00,
2013-04-01 04:12:00,41.2,35.8,30.21,NW,316,2.0,15.0,81,0.00,,---,0.00,VWS V14.01,2013-04-01 09:12:00,
2013-04-01 04:17:00,41.2,35.8,30.21,NE,52,7.0,14.0,81,0.00,,---,0.00,VWS V14.01,2013-04-01 09:17:00,
2013-04-01 04:22:00,41.1,35.7,30.22,NE,46,10.0,16.0,81,0.00,,---,0.00,VWS V14.01,2013-04-01 09:22:00,
2013-04-01 04:27:00,41.0,35.6,30.22,NE,54,11.0,16.0,81,0.00,,---,0.00,VWS V14.01,2013-04-01 09:27:00,
2013-04-01 04:32:00,40.9,35.2,30.22,NE,50,8.0,14.0,80,0.00,,---,0.00,VWS V14.01,2013-04-01 09:32:00,
2013-04-01 04:37:00,40.5,34.8,30.22,NNE,23,5.0,14.0,80,0.00,,---,0.00,VWS V14.01,2013-04-01 09:37:00,
2013-04-01 04:42:00,39.8,34.1,30.23,East,86,7.0,14.0,80,0.00,,---,0.00,VWS V14.01,2013-04-01 09:42:00,
2013-04-01 04:48:00,39.1,33.5,30.23,NE,50,5.0,11.0,80,0.00,,---,0.00,VWS V14.01,2013-04-01 09:48:00,
2013-04-01 04:52:00,38.7,33.4,30.23,WNW,290,8.0,16.0,81,0.00,,---,0.00,VWS V14.01,2013-04-01 09:52:00,
2013-04-01 04:58:00,38.6,33.3,30.23,NNW,335,3.0,16.0,81,0.00,,---,0.00,VWS V14.01,2013-04-01 09:58:00,
2013-04-01 05:03:00,38.4,33.1,30.23,ENE,63,10.0,13.0,81,0.00,,---,0.00,VWS V14.01,2013-04-01 10:03:00,
2013-04-01 05:08:00,38.2,32.6,30.24,NE,36,8.0,15.0,80,0.00,,---,0.00,VWS V14.01,2013-04-01 10:08:00,
2013-04-01 05:13:00,38.1,32.5,30.24,NNE,23,5.0,18.0,80,0.00,,---,0.00,VWS V14.01,2013-04-01 10:13:00,
2013-04-01 05:18:00,38.0,32.4,30.24,NE,49,16.0,16.0,80,0.00,,---,0.00,VWS V14.01,2013-04-01 10:18:00,
2013-04-01 05:23:00,37.9,32.3,30.25,NE,53,8.0,16.0,80,0.00,,---,0.00,VWS V14.01,2013-04-01 10:23:00,
2013-04-01 05:28:00,37.9,32.3,30.25,ENE,65,6.0,16.0,80,0.00,,---,0.00,VWS V14.01,2013-04-01 10:28:00,
2013-04-01 05:33:00,37.8,32.2,30.25,NNW,347,6.0,14.0,80,0.00,,---,0.00,VWS V14.01,2013-04-01 10:33:00,
2013-04-01 05:38:00,37.7,32.1,30.25,NE,45,8.0,14.0,80,0.00,,---,0.00,VWS V14.01,2013-04-01 10:38:00,
2013-04-01 05:43:00,37.6,32.3,30.26,NE,44,6.0,14.0,81,0.00,,---,0.00,VWS V14.01,2013-04-01 10:43:00,
2013-04-01 05:48:00,37.6,32.3,30.26,NE,52,5.0,8.0,81,0.00,,---,0.00,VWS V14.01,2013-04-01 10:48:00,
2013-04-01 05:53:00,37.6,32.3,30.26,NE,38,7.0,12.0,81,0.00,,---,0.00,VWS V14.01,2013-04-01 10:53:00,
2013-04-01 05:58:00,37.6,32.6,30.26,ENE,63,7.0,12.0,82,0.00,,---,0.00,VWS V14.01,2013-04-01 10:58:00,
2013-04-01 06:03:00,37.6,32.6,30.27,ENE,57,7.0,10.0,82,0.00,,---,0.00,VWS V14.01,2013-04-01 11:03:00,
2013-04-01 06:08:00,37.6,32.6,30.27,SE,140,2.0,10.0,82,0.00,,---,0.00,VWS V14.01,2013-04-01 11:08:00,
2013-04-01 06:13:00,37.0,31.4,30.28,NW,322,5.0,14.0,80,0.00,,---,0.00,VWS V14.01,2013-04-01 11:13:00,
2013-04-01 06:18:00,37.1,31.5,30.28,ENE,65,9.0,9.0,80,0.00,,---,0.00,VWS V14.01,2013-04-01 11:18:00,
2013-04-01 06:23:00,37.1,31.5,30.28,ENE,65,9.0,9.0,80,0.00,,---,0.00,VWS V14.01,2013-04-01 11:23:00,
2013-04-01 06:28:00,37.1,31.5,30.28,ENE,65,9.0,9.0,80,0.00,,---,0.00,VWS V14.01,2013-04-01 11:28:00,
2013-04-01 06:33:00,37.1,31.5,30.28,ENE,65,9.0,9.0,80,0.00,,---,0.00,VWS V14.01,2013-04-01 11:33:00,
2013-04-01 06:38:00,37.1,31.5,30.29,ENE,65,9.0,9.0,80,0.00,,---,0.00,VWS V14.01,2013-04-01 11:38:00,
2013-04-01 06:43:00,37.1,31.5,30.29,ENE,65,9.0,9.0,80,0.00,,---,0.00,VWS V14.01,2013-04-01 11:43:00,
2013-04-01 06:48:00,37.1,31.5,30.30,ENE,65,9.0,9.0,80,0.00,,---,0.00,VWS V14.01,2013-04-01 11:48:00,
2013-04-01 06:53:00,37.1,31.5,30.30,ENE,65,9.0,9.0,80,0.00,,---,0.00,VWS V14.01,2013-04-01 11:53:00,
2013-04-01 06:58:00,37.1,31.5,30.30,ENE,65,9.0,9.0,80,0.00,,---,0.00,VWS V14.01,2013-04-01 11:58:00,
2013-04-01 07:03:00,37.1,31.5,30.30,ENE,65,9.0,9.0,80,0.00,,---,0.00,VWS V14.01,2013-04-01 12:03:00,
2013-04-01 07:08:00,37.1,31.5,30.30,ENE,65,9.0,9.0,80,0.00,,---,0.00,VWS V14.01,2013-04-01 12:08:00,
2013-04-01 07:13:00,37.1,31.5,30.31,ENE,65,9.0,9.0,80,0.00,,---,0.00,VWS V14.01,2013-04-01 12:13:00,
2013-04-01 07:18:00,37.1,31.5,30.31,ENE,65,9.0,9.0,80,0.00,,---,0.00,VWS V14.01,2013-04-01 12:18:00,
2013-04-01 07:23:00,37.1,31.5,30.31,ENE,65,9.0,9.0,80,0.00,,---,0.00,VWS V14.01,2013-04-01 12:23:00,
2013-04-01 07:28:00,37.1,31.5,30.31,ENE,65,9.0,9.0,80,0.00,,---,0.00,VWS V14.01,2013-04-01 12:28:00,
2013-04-01 07:33:00,37.1,31.5,30.32,ENE,65,9.0,9.0,80,0.00,,---,0.00,VWS V14.01,2013-04-01 12:33:00,
2013-04-01 07:38:00,37.1,31.5,30.33,ENE,65,9.0,9.0,80,0.00,,---,0.00,VWS V14.01,2013-04-01 12:38:00,
2013-04-01 07:43:00,37.1,31.5,30.33,ENE,65,9.0,9.0,80,0.00,,---,0.00,VWS V14.01,2013-04-01 12:43:00,
2013-04-01 07:47:00,37.1,31.5,30.33,ENE,65,9.0,9.0,80,0.00,,---,0.00,VWS V14.01,2013-04-01 12:47:00,
2013-04-01 07:52:00,37.1,31.5,30.33,ENE,65,9.0,9.0,80,0.00,,---,0.00,VWS V14.01,2013-04-01 12:52:00,
2013-04-01 07:57:00,32.9,25.2,30.33,ENE,60,11.0,15.0,73,0.00,,---,0.00,VWS V14.01,2013-04-01 12:57:00,
2013-04-01 08:02:00,32.7,24.4,30.33,ENE,58,10.0,14.0,71,0.00,,---,0.00,VWS V14.01,2013-04-01 13:02:00,
2013-04-01 08:07:00,32.7,24.0,30.33,ENE,65,16.0,16.0,70,0.00,,---,0.00,VWS V14.01,2013-04-01 13:07:00,
2013-04-01 08:12:00,32.6,23.2,30.34,NE,45,8.0,18.0,68,0.00,,---,0.00,VWS V14.01,2013-04-01 13:12:00,
2013-04-01 08:17:00,32.6,23.6,30.34,NE,44,12.0,12.0,69,0.00,,---,0.00,VWS V14.01,2013-04-01 13:17:00,
2013-04-01 08:22:00,32.4,23.7,30.34,NE,45,5.0,14.0,70,0.00,,---,0.00,VWS V14.01,2013-04-01 13:22:00,
2013-04-01 08:27:00,32.5,23.8,30.34,NE,52,4.0,15.0,70,0.00,,---,0.00,VWS V14.01,2013-04-01 13:27:00,
2013-04-01 08:32:00,32.7,23.7,30.34,East,96,4.0,12.0,69,0.00,,---,0.00,VWS V14.01,2013-04-01 13:32:00,
2013-04-01 08:37:00,33.1,24.0,30.34,North,11,6.0,12.0,69,0.00,,---,0.00,VWS V14.01,2013-04-01 13:37:00,
2013-04-01 08:42:00,33.4,24.0,30.34,East,88,4.0,12.0,68,0.00,,---,0.00,VWS V14.01,2013-04-01 13:42:00,
2013-04-01 08:47:00,33.3,23.5,30.34,NE,56,5.0,15.0,67,0.00,,---,0.00,VWS V14.01,2013-04-01 13:47:00,
2013-04-01 08:52:00,33.5,23.7,30.35,NNE,30,6.0,15.0,67,0.00,,---,0.00,VWS V14.01,2013-04-01 13:52:00,
2013-04-01 08:57:00,33.6,23.8,30.35,NE,52,5.0,15.0,67,0.00,,---,0.00,VWS V14.01,2013-04-01 13:57:00,
2013-04-01 09:03:00,33.4,23.6,30.35,NE,52,7.0,13.0,67,0.00,,---,0.00,VWS V14.01,2013-04-01 14:03:00,
2013-04-01 09:08:00,33.7,23.9,30.35,East,91,4.0,13.0,67,0.00,,---,0.00,VWS V14.01,2013-04-01 14:08:00,
2013-04-01 09:13:00,33.6,23.5,30.35,ENE,77,13.0,16.0,66,0.00,,---,0.00,VWS V14.01,2013-04-01 14:13:00,
2013-04-01 09:18:00,34.0,23.5,30.36,East,79,2.0,12.0,65,0.00,,---,0.00,VWS V14.01,2013-04-01 14:18:00,
2013-04-01 09:23:00,34.3,24.1,30.36,NNE,25,4.0,12.0,66,0.00,,---,0.00,VWS V14.01,2013-04-01 14:23:00,
2013-04-01 09:27:00,34.6,24.1,30.35,NE,53,5.0,12.0,65,0.00,,---,0.00,VWS V14.01,2013-04-01 14:27:00,
2013-04-01 09:32:00,34.7,24.1,30.36,NE,41,8.0,9.0,65,0.00,,---,0.00,VWS V14.01,2013-04-01 14:32:00,
2013-04-01 09:37:00,34.6,24.4,30.36,NE,41,8.0,10.0,66,0.00,,---,0.00,VWS V14.01,2013-04-01 14:37:00,
2013-04-01 09:42:00,34.7,23.8,30.36,NNE,32,8.0,11.0,64,0.00,,---,0.00,VWS V14.01,2013-04-01 14:42:00,
2013-04-01 09:47:00,34.7,22.6,30.36,ENE,62,11.0,13.0,61,0.00,,---,0.00,VWS V14.01,2013-04-01 14:47:00,
2013-04-01 09:53:00,35.2,21.9,30.36,ENE,68,9.0,13.0,58,0.00,,---,0.00,VWS V14.01,2013-04-01 14:53:00,
2013-04-01 09:57:00,35.8,22.1,30.36,ENE,70,8.0,13.0,57,0.00,,---,0.00,VWS V14.01,2013-04-01 14:57:00,
2013-04-01 10:02:00,35.9,20.0,30.37,NNE,25,7.0,13.0,52,0.00,,---,0.00,VWS V14.01,2013-04-01 15:02:00,
2013-04-01 10:07:00,35.8,19.0,30.37,NE,38,7.0,13.0,50,0.00,,---,0.00,VWS V14.01,2013-04-01 15:07:00,
2013-04-01 10:12:00,35.9,19.1,30.37,ENE,57,3.0,13.0,50,0.00,,---,0.00,VWS V14.01,2013-04-01 15:12:00,
2013-04-01 10:17:00,36.2,20.7,30.37,NE,44,5.0,14.0,53,0.00,,---,0.00,VWS V14.01,2013-04-01 15:17:00,
2013-04-01 10:22:00,36.0,21.0,30.37,NE,47,12.0,14.0,54,0.00,,---,0.00,VWS V14.01,2013-04-01 15:22:00,
2013-04-01 10:27:00,35.7,19.8,30.38,East,79,10.0,14.0,52,0.00,,---,0.00,VWS V14.01,2013-04-01 15:27:00,
2013-04-01 10:32:00,36.1,19.7,30.37,NE,47,10.0,13.0,51,0.00,,---,0.00,VWS V14.01,2013-04-01 15:32:00,
2013-04-01 10:37:00,35.9,19.5,30.38,NE,46,4.0,13.0,51,0.00,,---,0.00,VWS V14.01,2013-04-01 15:37:00,
2013-04-01 10:42:00,36.4,20.5,30.38,South,174,2.0,13.0,52,0.00,,---,0.00,VWS V14.01,2013-04-01 15:42:00,
2013-04-01 10:48:00,36.8,20.4,30.37,NNW,340,2.0,9.0,51,0.00,,---,0.00,VWS V14.01,2013-04-01 15:48:00,
2013-04-01 10:53:00,37.2,20.3,30.37,ENE,65,5.0,12.0,50,0.00,,---,0.00,VWS V14.01,2013-04-01 15:53:00,
2013-04-01 10:58:00,37.4,20.0,30.37,NNE,28,5.0,13.0,49,0.00,,---,0.00,VWS V14.01,2013-04-01 15:58:00,
2013-04-01 11:03:00,37.6,20.2,30.37,NNW,340,6.0,8.0,49,0.00,,---,0.00,VWS V14.01,2013-04-01 16:03:00,
2013-04-01 11:08:00,37.3,20.4,30.36,ENE,60,5.0,13.0,50,0.00,,---,0.00,VWS V14.01,2013-04-01 16:08:00,
2013-04-01 11:13:00,37.7,20.8,30.37,ENE,70,9.0,13.0,50,0.00,,---,0.00,VWS V14.01,2013-04-01 16:13:00,
2013-04-01 11:18:00,37.6,18.7,30.37,East,94,7.0,17.0,46,0.00,,---,0.00,VWS V14.01,2013-04-01 16:18:00,
2013-04-01 11:23:00,37.4,20.0,30.37,ENE,57,4.0,17.0,49,0.00,,---,0.00,VWS V14.01,2013-04-01 16:23:00,
2013-04-01 11:28:00,37.6,19.7,30.37,ENE,63,6.0,17.0,48,0.00,,---,0.00,VWS V14.01,2013-04-01 16:28:00,
2013-04-01 11:33:00,37.3,18.9,30.37,ENE,68,5.0,12.0,47,0.00,,---,0.00,VWS V14.01,2013-04-01 16:33:00,
2013-04-01 11:38:00,37.3,18.9,30.37,NE,52,8.0,13.0,47,0.00,,---,0.00,VWS V14.01,2013-04-01 16:38:00,
2013-04-01 11:43:00,37.5,20.1,30.37,NW,326,2.0,13.0,49,0.00,,---,0.00,VWS V14.01,2013-04-01 16:43:00,
2013-04-01 11:48:00,37.5,19.1,30.38,NE,47,6.0,10.0,47,0.00,,---,0.00,VWS V14.01,2013-04-01 16:48:00,
2013-04-01 11:53:00,37.5,18.1,30.38,NE,37,4.0,12.0,45,0.00,,---,0.00,VWS V14.01,2013-04-01 16:53:00,
2013-04-01 11:58:00,37.6,18.2,30.38,ENE,57,13.0,14.0,45,0.00,,---,0.00,VWS V14.01,2013-04-01 16:58:00,
2013-04-01 12:03:00,37.7,18.3,30.38,North,8,5.0,7.0,45,0.00,,---,0.00,VWS V14.01,2013-04-01 17:03:00,
2013-04-01 12:08:00,38.5,18.5,30.39,NE,41,6.0,9.0,44,0.00,,---,0.00,VWS V14.01,2013-04-01 17:08:00,
2013-04-01 12:13:00,38.2,18.2,30.39,ENE,77,7.0,12.0,44,0.00,,---,0.00,VWS V14.01,2013-04-01 17:13:00,
2013-04-01 12:18:00,38.2,18.2,30.39,NNE,20,5.0,10.0,44,0.00,,---,0.00,VWS V14.01,2013-04-01 17:18:00,
2013-04-01 12:23:00,38.6,17.5,30.40,NE,48,6.0,11.0,42,0.00,,---,0.00,VWS V14.01,2013-04-01 17:23:00,
2013-04-01 12:28:00,38.7,18.7,30.40,ENE,65,5.0,11.0,44,0.00,,---,0.00,VWS V14.01,2013-04-01 17:28:00,
2013-04-01 12:33:00,38.9,17.8,30.40,NE,53,4.0,8.0,42,0.00,,---,0.00,VWS V14.01,2013-04-01 17:33:00,
2013-04-01 12:38:00,39.1,18.0,30.40,East,94,3.0,13.0,42,0.00,,---,0.00,VWS V14.01,2013-04-01 17:38:00,
2013-04-01 12:43:00,39.8,17.5,30.39,NE,49,5.0,13.0,40,0.00,,---,0.00,VWS V14.01,2013-04-01 17:43:00,
2013-04-01 12:48:00,39.6,17.3,30.39,NE,50,10.0,10.0,40,0.00,,---,0.00,VWS V14.01,2013-04-01 17:48:00,
2013-04-01 12:53:00,39.8,17.5,30.39,NE,56,9.0,10.0,40,0.00,,---,0.00,VWS V14.01,2013-04-01 17:53:00,
2013-04-01 12:58:00,40.1,17.7,30.39,NE,41,6.0,10.0,40,0.00,,---,0.00,VWS V14.01,2013-04-01 17:58:00,
2013-04-01 13:03:00,40.3,17.3,30.39,ENE,58,7.0,8.0,39,0.00,,---,0.00,VWS V14.01,2013-04-01 18:03:00,
2013-04-01 13:08:00,40.3,17.3,30.38,North,350,8.0,9.0,39,0.00,,---,0.00,VWS V14.01,2013-04-01 18:08:00,
2013-04-01 13:13:00,40.1,17.7,30.38,NNE,32,6.0,14.0,40,0.00,,---,0.00,VWS V14.01,2013-04-01 18:13:00,
2013-04-01 13:18:00,40.8,17.2,30.38,East,79,6.0,9.0,38,0.00,,---,0.00,VWS V14.01,2013-04-01 18:18:00,
2013-04-01 13:23:00,40.8,18.4,30.38,ENE,57,8.0,12.0,40,0.00,,---,0.00,VWS V14.01,2013-04-01 18:23:00,
2013-04-01 13:28:00,41.4,17.7,30.38,NE,52,5.0,12.0,38,0.00,,---,0.00,VWS V14.01,2013-04-01 18:28:00,
2013-04-01 13:33:00,41.7,18.6,30.37,NE,49,12.0,12.0,39,0.00,,---,0.00,VWS V14.01,2013-04-01 18:33:00,
2013-04-01 13:38:00,41.7,18.6,30.37,ENE,58,3.0,12.0,39,0.00,,---,0.00,VWS V14.01,2013-04-01 18:38:00,
2013-04-01 13:43:00,41.6,17.9,30.37,ENE,64,4.0,12.0,38,0.00,,---,0.00,VWS V14.01,2013-04-01 18:43:00,
2013-04-01 13:48:00,41.6,17.3,30.37,East,85,6.0,10.0,37,0.00,,---,0.00,VWS V14.01,2013-04-01 18:48:00,
2013-04-01 13:53:00,41.5,17.2,30.36,NE,47,4.0,10.0,37,0.00,,---,0.00,VWS V14.01,2013-04-01 18:53:00,
2013-04-01 13:58:00,41.9,16.9,30.36,NE,49,2.0,13.0,36,0.00,,---,0.00,VWS V14.01,2013-04-01 18:58:00,
2013-04-01 14:03:00,42.3,17.3,30.35,NE,46,4.0,10.0,36,0.00,,---,0.00,VWS V14.01,2013-04-01 19:03:00,
2013-04-01 14:08:00,42.7,18.3,30.35,NE,41,3.0,10.0,37,0.00,,---,0.00,VWS V14.01,2013-04-01 19:08:00,
2013-04-01 14:13:00,43.0,18.5,30.35,NNE,23,4.0,10.0,37,0.00,,---,0.00,VWS V14.01,2013-04-01 19:13:00,
2013-04-01 14:18:00,42.7,17.6,30.35,NE,44,5.0,11.0,36,0.00,,---,0.00,VWS V14.01,2013-04-01 19:18:00,
2013-04-01 14:23:00,42.7,18.3,30.34,ESE,108,3.0,11.0,37,0.00,,---,0.00,VWS V14.01,2013-04-01 19:23:00,
2013-04-01 14:28:00,43.3,19.4,30.34,ENE,70,4.0,11.0,38,0.00,,---,0.00,VWS V14.01,2013-04-01 19:28:00,
2013-04-01 14:33:00,43.3,18.2,30.34,NE,50,4.0,11.0,36,0.00,,---,0.00,VWS V14.01,2013-04-01 19:33:00,
2013-04-01 14:38:00,42.9,16.5,30.34,NE,54,8.0,14.0,34,0.00,,---,0.00,VWS V14.01,2013-04-01 19:38:00,
2013-04-01 14:43:00,43.1,17.3,30.34,NE,48,11.0,14.0,35,0.00,,---,0.00,VWS V14.01,2013-04-01 19:43:00,
2013-04-01 14:48:00,43.3,17.5,30.33,ENE,76,6.0,11.0,35,0.00,,---,0.00,VWS V14.01,2013-04-01 19:48:00,
2013-04-01 14:53:00,44.0,18.1,30.33,ENE,68,2.0,11.0,35,0.00,,---,0.00,VWS V14.01,2013-04-01 19:53:00,
2013-04-01 14:58:00,44.0,16.8,30.33,East,91,3.0,13.0,33,0.00,,---,0.00,VWS V14.01,2013-04-01 19:58:00,
2013-04-01 15:03:00,43.9,17.4,30.33,NE,49,2.0,12.0,34,0.00,,---,0.00,VWS V14.01,2013-04-01 20:03:00,
2013-04-01 15:08:00,44.1,18.2,30.32,ESE,115,0.0,14.0,35,0.00,,---,0.00,VWS V14.01,2013-04-01 20:08:00,
2013-04-01 15:13:00,44.6,18.7,30.32,NE,50,8.0,14.0,35,0.00,,---,0.00,VWS V14.01,2013-04-01 20:13:00,
2013-04-01 15:18:00,44.7,17.4,30.32,NE,56,5.0,10.0,33,0.00,,---,0.00,VWS V14.01,2013-04-01 20:18:00,
2013-04-01 15:23:00,44.8,17.5,30.32,NE,53,5.0,11.0,33,0.00,,---,0.00,VWS V14.01,2013-04-01 20:23:00,
2013-04-01 15:28:00,44.9,17.6,30.32,ENE,63,5.0,11.0,33,0.00,,---,0.00,VWS V14.01,2013-04-01 20:28:00,
2013-04-01 15:33:00,45.0,18.3,30.32,ESE,108,8.0,9.0,34,0.00,,---,0.00,VWS V14.01,2013-04-01 20:33:00,
2013-04-01 15:39:00,45.2,18.5,30.32,ENE,57,6.0,9.0,34,0.00,,---,0.00,VWS V14.01,2013-04-01 20:39:00,
2013-04-01 15:44:00,45.3,18.6,30.32,NE,53,5.0,10.0,34,0.00,,---,0.00,VWS V14.01,2013-04-01 20:44:00,
2013-04-01 15:49:00,45.3,18.6,30.32,NNW,347,3.0,10.0,34,0.00,,---,0.00,VWS V14.01,2013-04-01 20:49:00,
2013-04-01 15:54:00,45.4,18.7,30.31,ESE,110,2.0,10.0,34,0.00,,---,0.00,VWS V14.01,2013-04-01 20:54:00,
2013-04-01 15:59:00,45.3,18.6,30.31,East,82,5.0,12.0,34,0.00,,---,0.00,VWS V14.01,2013-04-01 20:59:00,
2013-04-01 16:04:00,45.4,19.4,30.31,NE,39,6.0,9.0,35,0.00,,---,0.00,VWS V14.01,2013-04-01 21:04:00,
2013-04-01 16:09:00,45.5,20.1,30.31,ENE,63,3.0,9.0,36,0.00,,---,0.00,VWS V14.01,2013-04-01 21:09:00,
2013-04-01 16:14:00,45.3,19.3,30.31,NE,47,2.0,11.0,35,0.00,,---,0.00,VWS V14.01,2013-04-01 21:14:00,
2013-04-01 16:19:00,45.2,19.2,30.31,ENE,65,7.0,12.0,35,0.00,,---,0.00,VWS V14.01,2013-04-01 21:19:00,
2013-04-01 16:23:00,45.1,19.8,30.31,East,83,4.0,12.0,36,0.00,,---,0.00,VWS V14.01,2013-04-01 21:23:00,
2013-04-01 16:28:00,45.6,20.2,30.30,ENE,70,6.0,12.0,36,0.00,,---,0.00,VWS V14.01,2013-04-01 21:28:00,
2013-04-01 16:33:00,46.0,19.9,30.30,NNE,32,6.0,8.0,35,0.00,,---,0.00,VWS V14.01,2013-04-01 21:33:00,
2013-04-01 16:38:00,45.6,19.5,30.30,NNE,32,6.0,11.0,35,0.00,,---,0.00,VWS V14.01,2013-04-01 21:38:00,
2013-04-01 16:43:00,45.1,19.8,30.30,ENE,62,4.0,12.0,36,0.00,,---,0.00,VWS V14.01,2013-04-01 21:43:00,
2013-04-01 16:48:00,45.2,19.9,30.30,NE,53,5.0,11.0,36,0.00,,---,0.00,VWS V14.01,2013-04-01 21:48:00,
2013-04-01 16:53:00,45.2,19.9,30.30,ENE,64,7.0,11.0,36,0.00,,---,0.00,VWS V14.01,2013-04-01 21:53:00,
2013-04-01 16:58:00,45.3,19.9,30.30,NE,41,4.0,11.0,36,0.00,,---,0.00,VWS V14.01,2013-04-01 21:58:00,
2013-04-01 17:03:00,45.2,19.9,30.30,East,79,8.0,8.0,36,0.00,,---,0.00,VWS V14.01,2013-04-01 22:03:00,
2013-04-01 17:08:00,45.3,20.6,30.30,NE,46,5.0,11.0,37,0.00,,---,0.00,VWS V14.01,2013-04-01 22:08:00,
2013-04-01 17:13:00,45.1,20.4,30.30,ENE,72,4.0,11.0,37,0.00,,---,0.00,VWS V14.01,2013-04-01 22:13:00,
2013-04-01 17:19:00,45.1,20.4,30.30,ENE,57,8.0,10.0,37,0.00,,---,0.00,VWS V14.01,2013-04-01 22:19:00,
2013-04-01 17:24:00,45.3,20.6,30.30,NE,36,2.0,10.0,37,0.00,,---,0.00,VWS V14.01,2013-04-01 22:24:00,
2013-04-01 17:29:00,45.4,21.3,30.29,ENE,73,4.0,10.0,38,0.00,,---,0.00,VWS V14.01,2013-04-01 22:29:00,
2013-04-01 17:34:00,45.4,20.7,30.29,SSE,155,4.0,9.0,37,0.00,,---,0.00,VWS V14.01,2013-04-01 22:34:00,
2013-04-01 17:39:00,45.2,21.1,30.29,NW,317,4.0,11.0,38,0.00,,---,0.00,VWS V14.01,2013-04-01 22:39:00,
2013-04-01 17:44:00,45.0,20.9,30.29,NE,52,7.0,11.0,38,0.00,,---,0.00,VWS V14.01,2013-04-01 22:44:00,
2013-04-01 17:49:00,44.8,20.1,30.29,East,83,10.0,11.0,37,0.00,,---,0.00,VWS V14.01,2013-04-01 22:49:00,
2013-04-01 17:54:00,45.0,20.9,30.29,East,79,8.0,11.0,38,0.00,,---,0.00,VWS V14.01,2013-04-01 22:54:00,
2013-04-01 17:59:00,45.1,20.4,30.29,SE,131,3.0,11.0,37,0.00,,---,0.00,VWS V14.01,2013-04-01 22:59:00,
2013-04-01 18:04:00,45.1,20.4,30.29,NNE,32,5.0,11.0,37,0.00,,---,0.00,VWS V14.01,2013-04-01 23:04:00,
2013-04-01 18:09:00,45.1,20.4,30.30,ENE,59,8.0,11.0,37,0.00,,---,0.00,VWS V14.01,2013-04-01 23:09:00,
2013-04-01 18:14:00,45.1,20.4,30.29,East,83,5.0,11.0,37,0.00,,---,0.00,VWS V14.01,2013-04-01 23:14:00,
2013-04-01 18:19:00,45.1,20.4,30.29,NE,56,4.0,10.0,37,0.00,,---,0.00,VWS V14.01,2013-04-01 23:19:00,
2013-04-01 18:24:00,45.3,20.6,30.29,ENE,57,4.0,10.0,37,0.00,,---,0.00,VWS V14.01,2013-04-01 23:24:00,
2013-04-01 18:29:00,45.2,20.5,30.29,NE,56,3.0,10.0,37,0.00,,---,0.00,VWS V14.01,2013-04-01 23:29:00,
2013-04-01 18:34:00,45.1,21.0,30.30,ESE,110,2.0,9.0,38,0.00,,---,0.00,VWS V14.01,2013-04-01 23:34:00,
2013-04-01 18:39:00,45.3,21.2,30.29,ENE,68,4.0,9.0,38,0.00,,---,0.00,VWS V14.01,2013-04-01 23:39:00,
2013-04-01 18:44:00,45.2,21.1,30.29,NNW,335,3.0,9.0,38,0.00,,---,0.00,VWS V14.01,2013-04-01 23:44:00,
2013-04-01 18:49:00,45.3,21.2,30.29,East,88,2.0,5.0,38,0.00,,---,0.00,VWS V14.01,2013-04-01 23:49:00,
2013-04-01 18:54:00,45.2,20.5,30.29,NE,56,5.0,8.0,37,0.00,,---,0.00,VWS V14.01,2013-04-01 23:54:00,
2013-04-01 18:59:00,45.1,20.4,30.30,SE,131,3.0,8.0,37,0.00,,---,0.00,VWS V14.01,2013-04-01 23:59:00,
2013-04-01 19:04:00,45.0,20.9,30.30,NE,45,4.0,8.0,38,0.00,,---,0.00,VWS V14.01,2013-04-02 00:04:00,
2013-04-01 19:09:00,45.0,20.9,30.30,NE,41,5.0,8.0,38,0.00,,---,0.00,VWS V14.01,2013-04-02 00:09:00,
2013-04-01 19:14:00,45.0,20.9,30.30,East,98,2.0,8.0,38,0.00,,---,0.00,VWS V14.01,2013-04-02 00:14:00,
2013-04-01 19:19:00,45.0,21.5,30.30,ENE,63,1.0,6.0,39,0.00,,---,0.00,VWS V14.01,2013-04-02 00:19:00,
2013-04-01 19:24:00,44.9,20.9,30.30,ENE,65,4.0,6.0,38,0.00,,---,0.00,VWS V14.01,2013-04-02 00:24:00,
2013-04-01 19:29:00,44.9,21.5,30.30,East,90,3.0,6.0,39,0.00,,---,0.00,VWS V14.01,2013-04-02 00:29:00,
2013-04-01 19:34:00,44.9,21.5,30.30,East,95,2.0,5.0,39,0.00,,---,0.00,VWS V14.01,2013-04-02 00:34:00,
2013-04-01 19:39:00,45.0,22.7,30.30,ENE,63,2.0,5.0,41,0.00,,---,0.00,VWS V14.01,2013-04-02 00:39:00,
2013-04-01 19:44:00,45.0,22.7,30.30,ENE,60,4.0,6.0,41,0.00,,---,0.00,VWS V14.01,2013-04-02 00:44:00,
2013-04-01 19:49:00,44.8,22.5,30.30,ENE,65,3.0,6.0,41,0.00,,---,0.00,VWS V14.01,2013-04-02 00:49:00,
2013-04-01 19:54:00,44.6,22.9,30.30,ENE,60,3.0,7.0,42,0.00,,---,0.00,VWS V14.01,2013-04-02 00:54:00,
2013-04-01 19:59:00,44.3,22.7,30.30,NE,56,3.0,8.0,42,0.00,,---,0.00,VWS V14.01,2013-04-02 00:59:00,
2013-04-01 20:04:00,44.1,22.5,30.30,East,91,0.0,3.0,42,0.00,,---,0.00,VWS V14.01,2013-04-02 01:04:00,
2013-04-01 20:09:00,43.9,22.3,30.30,ENE,59,3.0,5.0,42,0.00,,---,0.00,VWS V14.01,2013-04-02 01:09:00,
2013-04-01 20:14:00,43.5,22.5,30.31,NE,50,4.0,5.0,43,0.00,,---,0.00,VWS V14.01,2013-04-02 01:14:00,
2013-04-01 20:19:00,43.3,22.9,30.31,NE,48,4.0,6.0,44,0.00,,---,0.00,VWS V14.01,2013-04-02 01:19:00,
2013-04-01 20:24:00,43.0,22.6,30.31,ENE,63,1.0,6.0,44,0.00,,---,0.00,VWS V14.01,2013-04-02 01:24:00,
2013-04-01 20:29:00,42.8,23.0,30.31,ESE,102,2.0,6.0,45,0.00,,---,0.00,VWS V14.01,2013-04-02 01:29:00,
2013-04-01 20:34:00,42.5,22.7,30.32,NE,50,4.0,4.0,45,0.00,,---,0.00,VWS V14.01,2013-04-02 01:34:00,
2013-04-01 20:39:00,42.4,22.6,30.32,ENE,77,2.0,5.0,45,0.00,,---,0.00,VWS V14.01,2013-04-02 01:39:00,
2013-04-01 20:44:00,42.1,22.8,30.32,NE,45,3.0,5.0,46,0.00,,---,0.00,VWS V14.01,2013-04-02 01:44:00,
2013-04-01 20:49:00,41.9,22.6,30.32,ENE,58,1.0,4.0,46,0.00,,---,0.00,VWS V14.01,2013-04-02 01:49:00,
2013-04-01 20:54:00,41.7,22.5,30.32,ENE,61,3.0,6.0,46,0.00,,---,0.00,VWS V14.01,2013-04-02 01:54:00,
2013-04-01 20:59:00,41.5,22.8,30.33,NE,54,2.0,6.0,47,0.00,,---,0.00,VWS V14.01,2013-04-02 01:59:00,
2013-04-01 21:04:00,41.5,22.8,30.33,ENE,59,2.0,5.0,47,0.00,,---,0.00,VWS V14.01,2013-04-02 02:04:00,
2013-04-01 21:09:00,41.3,22.6,30.34,ENE,70,0.0,5.0,47,0.00,,---,0.00,VWS V14.01,2013-04-02 02:09:00,
2013-04-01 21:14:00,41.3,22.6,30.34,NE,48,2.0,5.0,47,0.00,,---,0.00,VWS V14.01,2013-04-02 02:14:00,
2013-04-01 21:19:00,41.2,22.5,30.34,ENE,74,1.0,4.0,47,0.00,,---,0.00,VWS V14.01,2013-04-02 02:19:00,
2013-04-01 21:24:00,41.1,22.4,30.35,ENE,74,0.0,6.0,47,0.00,,---,0.00,VWS V14.01,2013-04-02 02:24:00,
2013-04-01 21:29:00,41.0,22.8,30.35,ESE,115,0.0,6.0,48,0.00,,---,0.00,VWS V14.01,2013-04-02 02:29:00,
2013-04-01 21:34:00,40.8,22.6,30.35,ENE,59,2.0,5.0,48,0.00,,---,0.00,VWS V14.01,2013-04-02 02:34:00,
2013-04-01 21:39:00,40.7,22.5,30.36,NE,52,3.0,5.0,48,0.00,,---,0.00,VWS V14.01,2013-04-02 02:39:00,
2013-04-01 21:44:00,40.6,23.0,30.36,NE,49,1.0,5.0,49,0.00,,---,0.00,VWS V14.01,2013-04-02 02:44:00,
2013-04-01 21:49:00,40.5,22.9,30.36,ENE,70,1.0,5.0,49,0.00,,---,0.00,VWS V14.01,2013-04-02 02:49:00,
2013-04-01 21:54:00,40.3,23.1,30.36,ENE,63,2.0,5.0,50,0.00,,---,0.00,VWS V14.01,2013-04-02 02:54:00,
2013-04-01 21:59:00,40.1,23.0,30.36,NE,44,2.0,5.0,50,0.00,,---,0.00,VWS V14.01,2013-04-02 02:59:00,
2013-04-01 22:04:00,39.9,23.3,30.36,ENE,58,3.0,4.0,51,0.00,,---,0.00,VWS V14.01,2013-04-02 03:04:00,
2013-04-01 22:09:00,39.7,23.1,30.36,East,90,2.0,5.0,51,0.00,,---,0.00,VWS V14.01,2013-04-02 03:09:00,
2013-04-01 22:14:00,39.6,23.0,30.36,ENE,58,3.0,6.0,51,0.00,,---,0.00,VWS V14.01,2013-04-02 03:14:00,
2013-04-01 22:19:00,39.4,23.2,30.37,NNE,29,2.0,2.0,52,0.00,,---,0.00,VWS V14.01,2013-04-02 03:19:00,
2013-04-01 22:24:00,39.3,22.7,30.37,ENE,59,2.0,6.0,51,0.00,,---,0.00,VWS V14.01,2013-04-02 03:24:00,
2013-04-01 22:29:00,39.1,23.0,30.37,NE,45,2.0,6.0,52,0.00,,---,0.00,VWS V14.01,2013-04-02 03:29:00,
2013-04-01 22:34:00,39.0,22.9,30.37,ENE,72,3.0,5.0,52,0.00,,---,0.00,VWS V14.01,2013-04-02 03:34:00,
2013-04-01 22:39:00,38.9,22.8,30.37,ESE,121,3.0,5.0,52,0.00,,---,0.00,VWS V14.01,2013-04-02 03:39:00,
2013-04-01 22:44:00,38.7,22.6,30.37,ENE,63,3.0,5.0,52,0.00,,---,0.00,VWS V14.01,2013-04-02 03:44:00,
2013-04-01 22:49:00,38.6,22.5,30.37,ENE,57,3.0,5.0,52,0.00,,---,0.00,VWS V14.01,2013-04-02 03:49:00,
2013-04-01 22:54:00,38.5,22.4,30.37,NE,41,2.0,6.0,52,0.00,,---,0.00,VWS V14.01,2013-04-02 03:54:00,
2013-04-01 22:59:00,38.4,22.3,30.37,ENE,60,4.0,7.0,52,0.00,,---,0.00,VWS V14.01,2013-04-02 03:59:00,
2013-04-01 23:00:00,38.3,22.2,30.37,NE,38,5.0,7.0,52,0.00,,---,0.00,VWS V14.01,2013-04-02 04:00:00,
2013-04-01 23:05:00,38.2,22.1,30.36,NE,50,3.0,7.0,52,0.00,,---,0.00,VWS V14.01,2013-04-02 04:05:00,
2013-04-01 23:10:00,38.2,22.1,30.36,ENE,74,2.0,7.0,52,0.00,,---,0.00,VWS V14.01,2013-04-02 04:10:00,
2013-04-01 23:15:00,38.1,22.0,30.37,NE,54,2.0,7.0,52,0.00,,---,0.00,VWS V14.01,2013-04-02 04:15:00,
2013-04-01 23:20:00,37.9,22.3,30.37,East,79,5.0,5.0,53,0.00,,---,0.00,VWS V14.01,2013-04-02 04:20:00,
2013-04-01 23:25:00,37.7,22.1,30.37,ENE,70,3.0,6.0,53,0.00,,---,0.00,VWS V14.01,2013-04-02 04:25:00,
2013-04-01 23:30:00,37.6,22.0,30.37,NNE,32,3.0,7.0,53,0.00,,---,0.00,VWS V14.01,2013-04-02 04:30:00,
2013-04-01 23:36:00,37.5,21.9,30.36,ENE,65,3.0,6.0,53,0.00,,---,0.00,VWS V14.01,2013-04-02 04:36:00,
2013-04-01 23:41:00,37.2,22.1,30.36,NE,50,4.0,8.0,54,0.00,,---,0.00,VWS V14.01,2013-04-02 04:41:00,
2013-04-01 23:46:00,37.0,21.9,30.36,ESE,103,3.0,6.0,54,0.00,,---,0.00,VWS V14.01,2013-04-02 04:46:00,
2013-04-01 23:51:00,36.8,21.7,30.36,ENE,68,2.0,8.0,54,0.00,,---,0.00,VWS V14.01,2013-04-02 04:51:00,
2013-04-01 23:56:00,36.6,22.0,30.36,ENE,58,4.0,8.0,55,0.00,,---,0.00,VWS V14.01,2013-04-02 04:56:00,